Nearby METAR Reports

 

KCOE - Coeur D'alene, Idaho, USA
Distance from station: SSE 4mi, 7km
Updated: Sat, 23-Feb-2019 9:56am PST
Mist, Overcast
Mist, Overcast
 Wind from calm
Wind: Calm
Temperature: 28°F , -2°C
Dew Point: 25°F , -4°C
Humidity: 86%
Barometer: 30.10 inHg , 1019.3 hPa
Summary: Mist
Clouds: Overcast
Visibility: 5 miles , 8 km
Cloud details: Overcast 1200 ft
2019/02/23 17:56 KCOE 231756Z AUTO 00000KT 5SM BR OVC012 M02/M04 A3010 RMK AO2 SLP237 T10221044 11022 21078 51021 FZRANO
KSFF - Spokane/Felts, Washington, USA
Distance from station: WSW 24mi, 39km
Updated: Sat, 23-Feb-2019 9:53am PST
Mist, Overcast
Mist, Overcast
 Wind from calm
Wind: Calm
Temperature: 25°F , -4°C
Dew Point: 21°F , -6°C
Humidity: 86%
Barometer: 30.12 inHg , 1020 hPa
Summary: Mist
Clouds: Overcast
Visibility: 5 miles , 8 km
Cloud details: Mostly cloudy 700 ft
Overcast 1200 ft
2019/02/23 17:53 KSFF 231753Z 00000KT 5SM BR BKN007 OVC012 M04/M06 A3012 RMK AO2 SLP220 I6001 T10391056 11039 21072 51020
 
KDEW - Deer Park, Washington, USA
Distance from station: WNW 29mi, 47km
Updated: Sat, 23-Feb-2019 9:53am PST
Overcast
Overcast
 Wind from calm
Wind: Calm
Temperature: 21°F , -6°C
Dew Point: 21°F , -6°C
Humidity: 100%
Barometer: 30.11 inHg , 1019.6 hPa
Clouds: Overcast
Visibility: 10 miles , 16 km
Cloud details: Partly cloudy 500 ft
Overcast 900 ft
2019/02/23 17:53 KDEW 231753Z AUTO 00000KT 10SM SCT005 OVC009 M06/M06 A3011 RMK AO2 SLP224 I1001 I6004 T10561061 11050 21089 51022
KSZT - Wall/Sandpoint, Idaho, USA
Distance from station: NNE 35mi, 56km
Updated: Sat, 23-Feb-2019 10:35am PST

 Wind from calm
Wind: Calm
Temperature: 28°F , -2°C
Dew Point: 21°F , -6°C
Humidity: 74%
Barometer: 30.11 inHg , 1019.6 hPa
Visibility: 10 miles , 16 km
2019/02/23 18:35 KSZT 231835Z AUTO 00000KT 10SM M02/M06 A3011 RMK AO2
 
KGEG - Spokane/Metro, Washington, USA
Distance from station: WSW 35mi, 57km
Updated: Sat, 23-Feb-2019 9:53am PST
Freezing fog, Overcast
Freezing fog, Overcast
 Wind from ENE
Wind: ENE 6 mph , 9 km/h
Temperature: 25°F , -4°C
Wind Chill: 18°F , -8°C
Dew Point: 21°F , -6°C
Humidity: 86%
Barometer: 30.08 inHg , 1018.6 hPa
Summary: Freezing Fog
Clouds: Overcast
Visibility: 1/8 mile , 0.2 km
Cloud details: Overcast 200 ft
2019/02/23 17:53 KGEG 231753Z 07005KT 1/8SM R21/4000VP6000FT FZFG VV002 M04/M06 A3008 RMK AO2 SFC VIS 1/2 SLP213 VIS W-N 3/4 4/016 933033 I6004 T10441061 11044 21089 51020
KSKA - Fairchild Afb, Washington, USA
Distance from station: WSW 40mi, 65km
Updated: Sat, 23-Feb-2019 9:58am PST
Freezing fog, Overcast
Freezing fog, Overcast
 Wind from calm
Wind: Calm
Temperature: 19°F , -7°C
Dew Point: 19°F , -7°C
Humidity: 100%
Barometer: 30.07 inHg , 1018.3 hPa
Summary: Freezing Fog
Clouds: Overcast
Visibility: 1/2 mile , 0.8 km
Cloud details: Overcast 200 ft
2019/02/23 17:58 KSKA 231758Z 00000KT 1/2SM R23/2600V4000FT FZFG VV002 M07/M07 A3007 RMK AO2A SLP218 4/009 T10691069 11067 21124 52019 $